Buoy 51659

sailwx.info

Track history (hours):
 
Tides and Currents Weather Stations Pressure Air Temp Water Temp Dewpoint Dewpoint Depression Visibility Wind Speed Wind Dir Waves Ship Positions

Drifting buoy 51659

Last reported at 2016-Jul-25 20:00 UTC. Time now 2016-Jul-25 22:06 UTC.
Position S 10°18' W 175°11'.

Water temperature 29.0 ° C

Date/timePositionNaut miles runAvg speedWind from/ knotsBaromVisibWave heightAir tempDewpointWater temp
2016-Jul-25 20:00S 10°18' W 175°11'0 0.0 29.0
2016-Jul-25 19:00S 10°18' W 175°11'3 1.3 29.0
2016-Jul-25 17:00S 10°17' W 175°09'1 0.9 29.0
2016-Jul-25 16:00S 10°17' W 175°10'3 0.5 29.0
2016-Jul-25 10:00S 10°14' W 175°09'2 1.2 29.0
2016-Jul-25 08:00S 10°12' W 175°09'1 0.4 29.0
2016-Jul-25 05:00S 10°12' W 175°08'0 0.3 29.0
2016-Jul-25 04:00S 10°12' W 175°08'0 0.4 29.1
2016-Jul-25 03:00S 10°12' W 175°08'0 0.2 29.1
2016-Jul-25 01:00S 10°12' W 175°08'1 0.3 29.1
2016-Jul-24 20:00S 10°10' W 175°09'0 0.3 29.0
2016-Jul-24 19:00S 10°10' W 175°09'0 0.2 29.0
2016-Jul-24 17:00S 10°10' W 175°08'3 0.4 29.0
2016-Jul-24 09:00S 10°08' W 175°11'0 0.0 29.1
2016-Jul-24 06:00S 10°08' W 175°11'1 1.0 29.1
2016-Jul-24 05:00S 10°07' W 175°11'1 0.6 29.1
2016-Jul-24 04:00S 10°07' W 175°12'0 0.1 29.1
2016-Jul-24 03:00S 10°07' W 175°12'1 0.3 29.1
2016-Jul-24 01:00S 10°06' W 175°12'1 0.4 29.1
2016-Jul-23 22:00S 10°05' W 175°13'0 0.2 29.1
2016-Jul-23 20:00S 10°05' W 175°13'1 0.3 29.1
2016-Jul-23 17:00S 10°04' W 175°13'1 1.0 29.1
2016-Jul-23 16:00S 10°03' W 175°14'2 0.5 29.1
2016-Jul-23 13:00S 10°02' W 175°14'0 0.0 29.1
2016-Jul-23 12:00S 10°02' W 175°14'2 0.3 29.1
2016-Jul-23 06:00S 09°60' W 175°13'1 0.7 29.1
2016-Jul-23 04:00S 09°58' W 175°13'0 0.0 29.1
2016-Jul-23 03:00S 09°58' W 175°13'1 0.8 29.1
2016-Jul-23 02:00S 09°58' W 175°13'0 0.1 29.2
2016-Jul-23 01:00S 09°58' W 175°13'4 0.5 29.2
2016-Jul-22 17:00S 09°54' W 175°12'1 0.7 29.1
2016-Jul-22 16:00S 09°53' W 175°12'2 0.6 29.0
2016-Jul-22 13:00S 09°51' W 175°12'2 0.2 29.1
2016-Jul-22 06:00S 09°50' W 175°12'1 0.4 29.2
2016-Jul-22 04:00S 09°49' W 175°12'1 1.3 29.2
2016-Jul-22 03:00S 09°49' W 175°13'0 0.1 29.2
2016-Jul-22 02:00S 09°49' W 175°13'0 0.0 29.2
2016-Jul-22 01:00S 09°49' W 175°13'2 0.5 29.2
2016-Jul-21 21:00S 09°47' W 175°14'0 0.5 29.2
2016-Jul-21 20:00S 09°47' W 175°14'2 0.7 29.2
2016-Jul-21 17:00S 09°45' W 175°15'2 0.6 29.2
2016-Jul-21 13:00S 09°44' W 175°17'0 0.0 29.2
2016-Jul-21 10:00S 09°44' W 175°17'1 1.1 29.3
2016-Jul-21 09:00S 09°42' W 175°17'0 0.0 29.3
2016-Jul-21 08:00S 09°42' W 175°17'1 0.3 29.3
2016-Jul-21 05:00S 09°42' W 175°17'1 1.3 29.4
2016-Jul-21 04:00S 09°41' W 175°18'0 0.1 29.4
2016-Jul-21 02:00S 09°41' W 175°18'4 0.7 29.5
2016-Jul-20 20:00S 09°37' W 175°20'2 2.1 29.3
2016-Jul-20 19:00S 09°35' W 175°20'3 1.1 29.2
2016-Jul-20 16:00S 09°32' W 175°21'2 0.8 29.2
2016-Jul-20 13:00S 09°30' W 175°21'2 0.3 29.2
2016-Jul-20 08:00S 09°28' W 175°21'2 0.6 29.3
2016-Jul-20 05:00S 09°27' W 175°21'2 2.0 29.3
2016-Jul-20 04:00S 09°25' W 175°20'0 0.0 29.4
2016-Jul-20 02:00S 09°25' W 175°20'1 0.1 29.4
2016-Jul-19 20:00S 09°24' W 175°21'1 0.4 29.3
2016-Jul-19 17:00S 09°23' W 175°22'3 0.6 29.3
2016-Jul-19 13:00S 09°21' W 175°23'0 0.1 29.3
2016-Jul-19 09:00S 09°21' W 175°23'1 1.4 29.2
2016-Jul-19 08:00S 09°21' W 175°24'1 0.6 29.2
2016-Jul-19 07:00S 09°21' W 175°24'0 0.0 29.2
2016-Jul-19 06:00S 09°21' W 175°24'0 0.1 29.2
2016-Jul-19 05:00S 09°21' W 175°24'1 1.0 29.2
2016-Jul-19 04:00S 09°20' W 175°25'2 0.3 29.2
2016-Jul-18 22:00S 09°19' W 175°26'1 0.4 29.2
2016-Jul-18 20:00S 09°19' W 175°26'3 0.7 29.2
2016-Jul-18 16:00S 09°17' W 175°29'3 1.5 29.2
2016-Jul-18 14:00S 09°15' W 175°31'1 1.2 29.2
2016-Jul-18 13:00S 09°15' W 175°30'3 0.6 29.2
2016-Jul-18 08:00S 09°12' W 175°31'2 0.8 29.2
2016-Jul-18 06:00S 09°11' W 175°32'2 1.9 29.2
2016-Jul-18 05:00S 09°09' W 175°32'3 0.8 29.2
2016-Jul-18 01:00S 09°06' W 175°33'2 0.3 29.1
2016-Jul-17 20:00S 09°04' W 175°33'1 1.1 29.3
2016-Jul-17 19:00S 09°04' W 175°34'0 0.2 29.4
2016-Jul-17 18:00S 09°04' W 175°34'1 0.9 29.4
2016-Jul-17 17:00S 09°03' W 175°34'1 1.3 29.4
2016-Jul-17 16:00S 09°02' W 175°34'1 0.5 29.4
2016-Jul-17 14:00S 09°01' W 175°35'0 0.1 29.4
2016-Jul-17 09:00S 09°01' W 175°34'2 1.6 29.4
2016-Jul-17 08:00S 08°59' W 175°34'1 0.3 29.4
2016-Jul-17 05:00S 08°59' W 175°35'0 0.3 29.5
2016-Jul-17 04:00S 08°59' W 175°35'1 0.7 29.5
2016-Jul-17 03:00S 08°59' W 175°35'1 0.3 29.5
2016-Jul-17 01:00S 08°58' W 175°35'3 0.7 29.5
2016-Jul-16 21:00S 08°56' W 175°37'0 0.0 29.4
2016-Jul-16 20:00S 08°56' W 175°37'1 0.4 29.4
2016-Jul-16 18:00S 08°55' W 175°38'3 0.8 29.5
2016-Jul-16 14:00S 08°52' W 175°38'0 0.0 29.5
2016-Jul-16 10:00S 08°52' W 175°38'1 1.0 29.4
2016-Jul-16 09:00S 08°51' W 175°38'0 0.0 29.3
2016-Jul-16 08:00S 08°51' W 175°38'1 1.4 29.3
2016-Jul-16 07:00S 08°50' W 175°39'0 0.2 29.3
2016-Jul-16 06:00S 08°50' W 175°39'1 1.1 29.3
2016-Jul-16 05:00S 08°49' W 175°38'0 0.0 29.3
2016-Jul-16 04:00S 08°49' W 175°38'2 1.7 29.1
2016-Jul-16 03:00S 08°48' W 175°38'0 0.0 29.2
2016-Jul-16 01:00S 08°48' W 175°38'4 0.9 29.0
2016-Jul-15 21:00S 08°44' W 175°37'   29.0
Track history (hours):
 
Tides and Currents Weather Stations Pressure Air Temp Water Temp Dewpoint Dewpoint Depression Visibility Wind Speed Wind Dir Waves Ship Positions

Drifting buoy 51659

Last reported at 2016-Jul-25 20:00 UTC. Time now 2016-Jul-25 22:06 UTC.
Position S 10°18' W 175°11'.

Water temperature 29.0 ° C

Date/timePositionNaut miles runAvg speedWind from/ knotsBaromVisibWave heightAir tempDewpointWater temp
2016-Jul-25 20:00S 10°18' W 175°11'0 0.0 29.0
2016-Jul-25 19:00S 10°18' W 175°11'3 1.3 29.0
2016-Jul-25 17:00S 10°17' W 175°09'1 0.9 29.0
2016-Jul-25 16:00S 10°17' W 175°10'3 0.5 29.0
2016-Jul-25 10:00S 10°14' W 175°09'2 1.2 29.0
2016-Jul-25 08:00S 10°12' W 175°09'1 0.4 29.0
2016-Jul-25 05:00S 10°12' W 175°08'0 0.3 29.0
2016-Jul-25 04:00S 10°12' W 175°08'0 0.4 29.1
2016-Jul-25 03:00S 10°12' W 175°08'0 0.2 29.1
2016-Jul-25 01:00S 10°12' W 175°08'1 0.3 29.1
2016-Jul-24 20:00S 10°10' W 175°09'0 0.3 29.0
2016-Jul-24 19:00S 10°10' W 175°09'0 0.2 29.0
2016-Jul-24 17:00S 10°10' W 175°08'3 0.4 29.0
2016-Jul-24 09:00S 10°08' W 175°11'0 0.0 29.1
2016-Jul-24 06:00S 10°08' W 175°11'1 1.0 29.1
2016-Jul-24 05:00S 10°07' W 175°11'1 0.6 29.1
2016-Jul-24 04:00S 10°07' W 175°12'0 0.1 29.1
2016-Jul-24 03:00S 10°07' W 175°12'1 0.3 29.1
2016-Jul-24 01:00S 10°06' W 175°12'1 0.4 29.1
2016-Jul-23 22:00S 10°05' W 175°13'0 0.2 29.1
2016-Jul-23 20:00S 10°05' W 175°13'1 0.3 29.1
2016-Jul-23 17:00S 10°04' W 175°13'1 1.0 29.1
2016-Jul-23 16:00S 10°03' W 175°14'2 0.5 29.1
2016-Jul-23 13:00S 10°02' W 175°14'0 0.0 29.1
2016-Jul-23 12:00S 10°02' W 175°14'2 0.3 29.1
2016-Jul-23 06:00S 09°60' W 175°13'1 0.7 29.1
2016-Jul-23 04:00S 09°58' W 175°13'0 0.0 29.1
2016-Jul-23 03:00S 09°58' W 175°13'1 0.8 29.1
2016-Jul-23 02:00S 09°58' W 175°13'0 0.1 29.2
2016-Jul-23 01:00S 09°58' W 175°13'4 0.5 29.2
2016-Jul-22 17:00S 09°54' W 175°12'1 0.7 29.1
2016-Jul-22 16:00S 09°53' W 175°12'2 0.6 29.0
2016-Jul-22 13:00S 09°51' W 175°12'2 0.2 29.1
2016-Jul-22 06:00S 09°50' W 175°12'1 0.4 29.2
2016-Jul-22 04:00S 09°49' W 175°12'1 1.3 29.2
2016-Jul-22 03:00S 09°49' W 175°13'0 0.1 29.2
2016-Jul-22 02:00S 09°49' W 175°13'0 0.0 29.2
2016-Jul-22 01:00S 09°49' W 175°13'2 0.5 29.2
2016-Jul-21 21:00S 09°47' W 175°14'0 0.5 29.2
2016-Jul-21 20:00S 09°47' W 175°14'2 0.7 29.2
2016-Jul-21 17:00S 09°45' W 175°15'2 0.6 29.2
2016-Jul-21 13:00S 09°44' W 175°17'0 0.0 29.2
2016-Jul-21 10:00S 09°44' W 175°17'1 1.1 29.3
2016-Jul-21 09:00S 09°42' W 175°17'0 0.0 29.3
2016-Jul-21 08:00S 09°42' W 175°17'1 0.3 29.3
2016-Jul-21 05:00S 09°42' W 175°17'1 1.3 29.4
2016-Jul-21 04:00S 09°41' W 175°18'0 0.1 29.4
2016-Jul-21 02:00S 09°41' W 175°18'4 0.7 29.5
2016-Jul-20 20:00S 09°37' W 175°20'2 2.1 29.3
2016-Jul-20 19:00S 09°35' W 175°20'3 1.1 29.2
2016-Jul-20 16:00S 09°32' W 175°21'2 0.8 29.2
2016-Jul-20 13:00S 09°30' W 175°21'2 0.3 29.2
2016-Jul-20 08:00S 09°28' W 175°21'2 0.6 29.3
2016-Jul-20 05:00S 09°27' W 175°21'2 2.0 29.3
2016-Jul-20 04:00S 09°25' W 175°20'0 0.0 29.4
2016-Jul-20 02:00S 09°25' W 175°20'1 0.1 29.4
2016-Jul-19 20:00S 09°24' W 175°21'1 0.4 29.3
2016-Jul-19 17:00S 09°23' W 175°22'3 0.6 29.3
2016-Jul-19 13:00S 09°21' W 175°23'0 0.1 29.3
2016-Jul-19 09:00S 09°21' W 175°23'1 1.4 29.2
2016-Jul-19 08:00S 09°21' W 175°24'1 0.6 29.2
2016-Jul-19 07:00S 09°21' W 175°24'0 0.0 29.2
2016-Jul-19 06:00S 09°21' W 175°24'0 0.1 29.2
2016-Jul-19 05:00S 09°21' W 175°24'1 1.0 29.2
2016-Jul-19 04:00S 09°20' W 175°25'2 0.3 29.2
2016-Jul-18 22:00S 09°19' W 175°26'1 0.4 29.2
2016-Jul-18 20:00S 09°19' W 175°26'3 0.7 29.2
2016-Jul-18 16:00S 09°17' W 175°29'3 1.5 29.2
2016-Jul-18 14:00S 09°15' W 175°31'1 1.2 29.2
2016-Jul-18 13:00S 09°15' W 175°30'3 0.6 29.2
2016-Jul-18 08:00S 09°12' W 175°31'2 0.8 29.2
2016-Jul-18 06:00S 09°11' W 175°32'2 1.9 29.2
2016-Jul-18 05:00S 09°09' W 175°32'3 0.8 29.2
2016-Jul-18 01:00S 09°06' W 175°33'2 0.3 29.1
2016-Jul-17 20:00S 09°04' W 175°33'1 1.1 29.3
2016-Jul-17 19:00S 09°04' W 175°34'0 0.2 29.4
2016-Jul-17 18:00S 09°04' W 175°34'1 0.9 29.4
2016-Jul-17 17:00S 09°03' W 175°34'1 1.3 29.4
2016-Jul-17 16:00S 09°02' W 175°34'1 0.5 29.4
2016-Jul-17 14:00S 09°01' W 175°35'0 0.1 29.4
2016-Jul-17 09:00S 09°01' W 175°34'2 1.6 29.4
2016-Jul-17 08:00S 08°59' W 175°34'1 0.3 29.4
2016-Jul-17 05:00S 08°59' W 175°35'0 0.3 29.5
2016-Jul-17 04:00S 08°59' W 175°35'1 0.7 29.5
2016-Jul-17 03:00S 08°59' W 175°35'1 0.3 29.5
2016-Jul-17 01:00S 08°58' W 175°35'3 0.7 29.5
2016-Jul-16 21:00S 08°56' W 175°37'0 0.0 29.4
2016-Jul-16 20:00S 08°56' W 175°37'1 0.4 29.4
2016-Jul-16 18:00S 08°55' W 175°38'3 0.8 29.5
2016-Jul-16 14:00S 08°52' W 175°38'0 0.0 29.5
2016-Jul-16 10:00S 08°52' W 175°38'1 1.0 29.4
2016-Jul-16 09:00S 08°51' W 175°38'0 0.0 29.3
2016-Jul-16 08:00S 08°51' W 175°38'1 1.4 29.3
2016-Jul-16 07:00S 08°50' W 175°39'0 0.2 29.3
2016-Jul-16 06:00S 08°50' W 175°39'1 1.1 29.3
2016-Jul-16 05:00S 08°49' W 175°38'0 0.0 29.3
2016-Jul-16 04:00S 08°49' W 175°38'2 1.7 29.1
2016-Jul-16 03:00S 08°48' W 175°38'0 0.0 29.2
2016-Jul-16 01:00S 08°48' W 175°38'4 0.9 29.0
2016-Jul-15 21:00S 08°44' W 175°37'   29.0

Dump ship's entire track history